sensor_id;sensor_type;location;lat;lon;timestamp;P1;durP1;ratioP1;P2;durP2;ratioP2
22359;SDS011;11347;52.030;4.690;2023-04-03T11:03:26;2.57;;;1.20;;
22359;SDS011;11347;52.030;4.690;2023-04-03T11:05:56;3.63;;;1.10;;
22359;SDS011;11347;52.030;4.690;2023-04-03T11:10:51;2.93;;;1.27;;
22359;SDS011;11347;52.030;4.690;2023-04-03T11:13:27;2.93;;;1.00;;
22359;SDS011;11347;52.030;4.690;2023-04-03T11:15:55;3.27;;;1.10;;
22359;SDS011;11347;52.030;4.690;2023-04-03T12:29:54;0.63;;;0.30;;
22359;SDS011;11347;52.030;4.690;2023-04-03T12:35:23;1.00;;;0.40;;
22359;SDS011;11347;52.030;4.690;2023-04-03T12:50:45;1.63;;;0.70;;
22359;SDS011;11347;52.030;4.690;2023-04-03T12:58:51;1.07;;;0.67;;
22359;SDS011;11347;52.030;4.690;2023-04-03T13:01:37;1.93;;;0.70;;
22359;SDS011;11347;52.030;4.690;2023-04-03T13:04:03;2.07;;;0.77;;
22359;SDS011;11347;52.030;4.690;2023-04-03T13:06:30;2.03;;;0.80;;
22359;SDS011;11347;52.030;4.690;2023-04-03T13:09:04;0.97;;;0.70;;
22359;SDS011;11347;52.030;4.690;2023-04-03T13:11:33;1.60;;;0.80;;
22359;SDS011;11347;52.030;4.690;2023-04-03T13:14:02;2.17;;;0.80;;
22359;SDS011;11347;52.030;4.690;2023-04-03T13:16:32;1.97;;;0.90;;
22359;SDS011;11347;52.030;4.690;2023-04-03T13:18:58;2.50;;;0.60;;
22359;SDS011;11347;52.030;4.690;2023-04-03T13:21:25;3.30;;;0.70;;
22359;SDS011;11347;52.030;4.690;2023-04-03T13:23:57;4.70;;;0.80;;
22359;SDS011;11347;52.030;4.690;2023-04-03T13:26:26;2.43;;;0.70;;
22359;SDS011;11347;52.030;4.690;2023-04-03T13:29:00;1.83;;;0.80;;
22359;SDS011;11347;52.030;4.690;2023-04-03T13:31:34;1.90;;;0.73;;
22359;SDS011;11347;52.030;4.690;2023-04-03T13:34:12;2.93;;;0.70;;
22359;SDS011;11347;52.030;4.690;2023-04-03T13:36:45;2.83;;;0.60;;
22359;SDS011;11347;52.030;4.690;2023-04-03T13:39:35;3.13;;;0.80;;
22359;SDS011;11347;52.030;4.690;2023-04-03T13:42:14;1.77;;;0.50;;
22359;SDS011;11347;52.030;4.690;2023-04-03T13:44:46;4.00;;;0.63;;
22359;SDS011;11347;52.030;4.690;2023-04-03T13:47:22;2.90;;;0.80;;
22359;SDS011;11347;52.030;4.690;2023-04-03T13:50:00;2.00;;;0.53;;
22359;SDS011;11347;52.030;4.690;2023-04-03T13:55:28;1.43;;;0.60;;
22359;SDS011;11347;52.030;4.690;2023-04-03T14:00:48;2.37;;;0.50;;
22359;SDS011;11347;52.030;4.690;2023-04-03T14:06:04;3.00;;;0.70;;
22359;SDS011;11347;52.030;4.690;2023-04-03T14:08:30;1.83;;;0.63;;
22359;SDS011;11347;52.030;4.690;2023-04-03T14:10:56;1.50;;;0.50;;
22359;SDS011;11347;52.030;4.690;2023-04-03T14:13:23;2.20;;;0.53;;
22359;SDS011;11347;52.030;4.690;2023-04-03T14:15:49;0.70;;;0.40;;
22359;SDS011;11347;52.030;4.690;2023-04-03T14:18:17;2.50;;;0.77;;
22359;SDS011;11347;52.030;4.690;2023-04-03T14:20:44;1.27;;;0.60;;
22359;SDS011;11347;52.030;4.690;2023-04-03T14:23:10;5.60;;;0.70;;
22359;SDS011;11347;52.030;4.690;2023-04-03T14:25:36;1.20;;;0.50;;
22359;SDS011;11347;52.030;4.690;2023-04-03T14:28:12;1.43;;;0.60;;
22359;SDS011;11347;52.030;4.690;2023-04-03T14:30:44;3.77;;;0.80;;
22359;SDS011;11347;52.030;4.690;2023-04-03T14:33:14;4.83;;;0.70;;
22359;SDS011;11347;52.030;4.690;2023-04-03T14:35:42;1.60;;;0.53;;
22359;SDS011;11347;52.030;4.690;2023-04-03T14:38:23;5.10;;;0.70;;
22359;SDS011;11347;52.030;4.690;2023-04-03T14:40:51;1.63;;;0.60;;
22359;SDS011;11347;52.030;4.690;2023-04-03T14:43:17;2.20;;;0.60;;
22359;SDS011;11347;52.030;4.690;2023-04-03T14:45:44;1.43;;;0.57;;
22359;SDS011;11347;52.030;4.690;2023-04-03T14:48:15;2.37;;;0.70;;
22359;SDS011;11347;52.030;4.690;2023-04-03T14:50:47;2.33;;;0.63;;
22359;SDS011;11347;52.030;4.690;2023-04-03T14:53:14;1.93;;;0.43;;
22359;SDS011;11347;52.030;4.690;2023-04-03T14:55:46;2.93;;;0.70;;
22359;SDS011;11347;52.030;4.690;2023-04-03T14:58:16;1.13;;;0.50;;
22359;SDS011;11347;52.030;4.690;2023-04-03T15:00:43;2.50;;;0.70;;
22359;SDS011;11347;52.030;4.690;2023-04-03T15:03:12;1.43;;;0.60;;
22359;SDS011;11347;52.030;4.690;2023-04-03T15:05:43;2.10;;;0.50;;
22359;SDS011;11347;52.030;4.690;2023-04-03T15:08:28;2.63;;;0.80;;
22359;SDS011;11347;52.030;4.690;2023-04-03T15:10:55;1.73;;;0.50;;
22359;SDS011;11347;52.030;4.690;2023-04-03T15:13:22;1.33;;;0.60;;
22359;SDS011;11347;52.030;4.690;2023-04-03T15:15:49;1.83;;;0.50;;
22359;SDS011;11347;52.030;4.690;2023-04-03T15:18:16;1.33;;;0.60;;
22359;SDS011;11347;52.030;4.690;2023-04-03T15:20:44;4.63;;;0.70;;
22359;SDS011;11347;52.030;4.690;2023-04-03T15:23:14;3.60;;;0.83;;
22359;SDS011;11347;52.030;4.690;2023-04-03T15:25:41;1.70;;;0.80;;
22359;SDS011;11347;52.030;4.690;2023-04-03T15:28:09;2.70;;;1.00;;
22359;SDS011;11347;52.030;4.690;2023-04-03T15:30:47;2.40;;;0.70;;
22359;SDS011;11347;52.030;4.690;2023-04-03T15:33:12;3.63;;;0.80;;
22359;SDS011;11347;52.030;4.690;2023-04-03T15:35:38;3.13;;;0.80;;
22359;SDS011;11347;52.030;4.690;2023-04-03T15:38:03;2.23;;;0.70;;
22359;SDS011;11347;52.030;4.690;2023-04-03T15:40:29;1.30;;;0.60;;
22359;SDS011;11347;52.030;4.690;2023-04-03T15:42:54;2.00;;;0.80;;
22359;SDS011;11347;52.030;4.690;2023-04-03T15:45:20;3.43;;;1.20;;
22359;SDS011;11347;52.030;4.690;2023-04-03T15:47:49;3.23;;;0.80;;
22359;SDS011;11347;52.030;4.690;2023-04-03T15:50:15;5.07;;;0.70;;
22359;SDS011;11347;52.030;4.690;2023-04-03T15:52:41;2.13;;;0.80;;
22359;SDS011;11347;52.030;4.690;2023-04-03T15:55:07;1.97;;;0.80;;
22359;SDS011;11347;52.030;4.690;2023-04-03T15:57:32;2.30;;;0.70;;
22359;SDS011;11347;52.030;4.690;2023-04-03T15:59:58;2.10;;;0.70;;
22359;SDS011;11347;52.030;4.690;2023-04-03T16:02:39;2.57;;;0.74;;
22359;SDS011;11347;52.030;4.690;2023-04-03T16:05:06;2.20;;;0.70;;
22359;SDS011;11347;52.030;4.690;2023-04-03T16:07:32;6.77;;;0.70;;
22359;SDS011;11347;52.030;4.690;2023-04-03T16:09:59;2.77;;;0.73;;
22359;SDS011;11347;52.030;4.690;2023-04-03T16:12:25;1.70;;;0.80;;
22359;SDS011;11347;52.030;4.690;2023-04-03T16:14:50;2.50;;;0.90;;
22359;SDS011;11347;52.030;4.690;2023-04-03T16:17:16;4.63;;;0.80;;
22359;SDS011;11347;52.030;4.690;2023-04-03T16:19:42;3.73;;;0.77;;
22359;SDS011;11347;52.030;4.690;2023-04-03T16:22:08;2.63;;;0.70;;
22359;SDS011;11347;52.030;4.690;2023-04-03T16:24:33;4.80;;;0.80;;
22359;SDS011;11347;52.030;4.690;2023-04-03T16:27:00;3.53;;;1.10;;
22359;SDS011;11347;52.030;4.690;2023-04-03T16:29:26;2.70;;;1.23;;
22359;SDS011;11347;52.030;4.690;2023-04-03T16:31:51;3.03;;;0.87;;
22359;SDS011;11347;52.030;4.690;2023-04-03T16:34:18;4.17;;;1.07;;
22359;SDS011;11347;52.030;4.690;2023-04-03T16:36:46;2.83;;;0.90;;
22359;SDS011;11347;52.030;4.690;2023-04-03T16:39:11;3.23;;;0.80;;
22359;SDS011;11347;52.030;4.690;2023-04-03T16:41:37;4.03;;;0.70;;
22359;SDS011;11347;52.030;4.690;2023-04-03T16:44:03;8.00;;;1.20;;
22359;SDS011;11347;52.030;4.690;2023-04-03T16:46:33;4.10;;;0.90;;
22359;SDS011;11347;52.030;4.690;2023-04-03T16:49:02;3.70;;;0.90;;
22359;SDS011;11347;52.030;4.690;2023-04-03T16:51:28;4.73;;;1.23;;
22359;SDS011;11347;52.030;4.690;2023-04-03T16:53:56;3.67;;;0.80;;
22359;SDS011;11347;52.030;4.690;2023-04-03T16:56:22;5.73;;;1.40;;
22359;SDS011;11347;52.030;4.690;2023-04-03T16:58:47;6.73;;;1.13;;
22359;SDS011;11347;52.030;4.690;2023-04-03T17:01:17;3.57;;;1.00;;
22359;SDS011;11347;52.030;4.690;2023-04-03T17:03:44;2.60;;;0.83;;
22359;SDS011;11347;52.030;4.690;2023-04-03T17:06:10;5.43;;;1.50;;
22359;SDS011;11347;52.030;4.690;2023-04-03T17:08:40;3.33;;;1.00;;
22359;SDS011;11347;52.030;4.690;2023-04-03T17:11:07;3.73;;;1.00;;
22359;SDS011;11347;52.030;4.690;2023-04-03T17:13:32;3.67;;;1.10;;
22359;SDS011;11347;52.030;4.690;2023-04-03T17:15:59;1.97;;;0.80;;
22359;SDS011;11347;52.030;4.690;2023-04-03T17:18:27;3.93;;;1.00;;
22359;SDS011;11347;52.030;4.690;2023-04-03T17:20:55;7.47;;;1.13;;
22359;SDS011;11347;52.030;4.690;2023-04-03T17:23:21;2.90;;;0.83;;
22359;SDS011;11347;52.030;4.690;2023-04-03T17:25:48;8.67;;;1.03;;
22359;SDS011;11347;52.030;4.690;2023-04-03T17:28:14;3.93;;;0.97;;
22359;SDS011;11347;52.030;4.690;2023-04-03T17:30:40;2.27;;;0.80;;
22359;SDS011;11347;52.030;4.690;2023-04-03T17:33:05;2.57;;;0.80;;
22359;SDS011;11347;52.030;4.690;2023-04-03T17:35:31;5.67;;;1.23;;
22359;SDS011;11347;52.030;4.690;2023-04-03T17:37:58;3.33;;;1.10;;
22359;SDS011;11347;52.030;4.690;2023-04-03T17:40:24;2.90;;;0.90;;
22359;SDS011;11347;52.030;4.690;2023-04-03T17:42:50;3.83;;;1.00;;
22359;SDS011;11347;52.030;4.690;2023-04-03T17:45:16;5.63;;;1.10;;
22359;SDS011;11347;52.030;4.690;2023-04-03T17:47:42;7.13;;;1.30;;
22359;SDS011;11347;52.030;4.690;2023-04-03T17:50:08;3.83;;;1.10;;
22359;SDS011;11347;52.030;4.690;2023-04-03T17:52:33;4.90;;;1.00;;
22359;SDS011;11347;52.030;4.690;2023-04-03T17:54:59;4.80;;;1.07;;
22359;SDS011;11347;52.030;4.690;2023-04-03T17:57:25;4.63;;;1.30;;
22359;SDS011;11347;52.030;4.690;2023-04-03T17:59:52;6.90;;;1.20;;
22359;SDS011;11347;52.030;4.690;2023-04-03T18:02:17;3.90;;;1.10;;
22359;SDS011;11347;52.030;4.690;2023-04-03T18:04:43;4.73;;;1.37;;
22359;SDS011;11347;52.030;4.690;2023-04-03T18:07:10;5.43;;;1.40;;
22359;SDS011;11347;52.030;4.690;2023-04-03T18:09:35;2.93;;;1.10;;
22359;SDS011;11347;52.030;4.690;2023-04-03T18:12:05;4.57;;;1.23;;
22359;SDS011;11347;52.030;4.690;2023-04-03T18:14:41;4.47;;;1.40;;
22359;SDS011;11347;52.030;4.690;2023-04-03T18:17:09;5.13;;;1.10;;
22359;SDS011;11347;52.030;4.690;2023-04-03T18:19:35;7.33;;;1.17;;
22359;SDS011;11347;52.030;4.690;2023-04-03T18:22:13;3.47;;;1.00;;
22359;SDS011;11347;52.030;4.690;2023-04-03T18:24:41;2.17;;;0.90;;
22359;SDS011;11347;52.030;4.690;2023-04-03T18:27:09;4.27;;;1.10;;
22359;SDS011;11347;52.030;4.690;2023-04-03T18:29:37;2.90;;;1.10;;
22359;SDS011;11347;52.030;4.690;2023-04-03T18:32:06;4.67;;;1.30;;
22359;SDS011;11347;52.030;4.690;2023-04-03T18:34:33;8.00;;;1.63;;
22359;SDS011;11347;52.030;4.690;2023-04-03T18:36:59;3.07;;;1.27;;
22359;SDS011;11347;52.030;4.690;2023-04-03T18:39:27;3.37;;;1.23;;
22359;SDS011;11347;52.030;4.690;2023-04-03T18:41:52;4.23;;;0.90;;
22359;SDS011;11347;52.030;4.690;2023-04-03T18:44:20;5.87;;;1.10;;
22359;SDS011;11347;52.030;4.690;2023-04-03T18:46:47;3.20;;;1.10;;
22359;SDS011;11347;52.030;4.690;2023-04-03T18:49:13;2.90;;;1.13;;
22359;SDS011;11347;52.030;4.690;2023-04-03T18:51:40;6.23;;;1.40;;
22359;SDS011;11347;52.030;4.690;2023-04-03T18:54:06;4.50;;;1.10;;
22359;SDS011;11347;52.030;4.690;2023-04-03T18:56:34;2.47;;;1.10;;
22359;SDS011;11347;52.030;4.690;2023-04-03T18:59:00;2.60;;;1.10;;
22359;SDS011;11347;52.030;4.690;2023-04-03T19:01:26;7.10;;;1.70;;
22359;SDS011;11347;52.030;4.690;2023-04-03T19:03:51;2.40;;;0.90;;
22359;SDS011;11347;52.030;4.690;2023-04-03T19:06:17;5.93;;;1.20;;
22359;SDS011;11347;52.030;4.690;2023-04-03T19:08:43;3.23;;;1.03;;
22359;SDS011;11347;52.030;4.690;2023-04-03T19:11:08;3.87;;;1.10;;
22359;SDS011;11347;52.030;4.690;2023-04-03T19:13:35;2.90;;;1.00;;
22359;SDS011;11347;52.030;4.690;2023-04-03T19:16:01;5.80;;;1.20;;
22359;SDS011;11347;52.030;4.690;2023-04-03T19:18:27;2.80;;;1.10;;
22359;SDS011;11347;52.030;4.690;2023-04-03T19:20:53;4.80;;;1.10;;
22359;SDS011;11347;52.030;4.690;2023-04-03T19:23:20;4.60;;;1.20;;
22359;SDS011;11347;52.030;4.690;2023-04-03T19:25:46;4.33;;;1.10;;
22359;SDS011;11347;52.030;4.690;2023-04-03T19:28:20;2.87;;;0.90;;
22359;SDS011;11347;52.030;4.690;2023-04-03T19:30:46;5.87;;;1.00;;
22359;SDS011;11347;52.030;4.690;2023-04-03T19:33:12;4.23;;;1.07;;
22359;SDS011;11347;52.030;4.690;2023-04-03T19:35:41;3.87;;;1.30;;
22359;SDS011;11347;52.030;4.690;2023-04-03T19:38:07;2.43;;;1.10;;
22359;SDS011;11347;52.030;4.690;2023-04-03T19:40:32;2.07;;;0.83;;
22359;SDS011;11347;52.030;4.690;2023-04-03T19:42:59;4.83;;;1.07;;
22359;SDS011;11347;52.030;4.690;2023-04-03T19:45:25;4.53;;;1.40;;
22359;SDS011;11347;52.030;4.690;2023-04-03T19:47:51;3.37;;;1.00;;
22359;SDS011;11347;52.030;4.690;2023-04-03T19:50:18;2.20;;;0.73;;
22359;SDS011;11347;52.030;4.690;2023-04-03T19:52:44;4.97;;;1.13;;
22359;SDS011;11347;52.030;4.690;2023-04-03T19:55:09;2.20;;;1.07;;
22359;SDS011;11347;52.030;4.690;2023-04-03T19:57:35;3.27;;;0.83;;
22359;SDS011;11347;52.030;4.690;2023-04-03T20:00:00;3.73;;;1.00;;
22359;SDS011;11347;52.030;4.690;2023-04-03T20:02:26;5.90;;;1.10;;
22359;SDS011;11347;52.030;4.690;2023-04-03T20:04:52;4.00;;;0.90;;
22359;SDS011;11347;52.030;4.690;2023-04-03T20:07:17;1.70;;;0.80;;
22359;SDS011;11347;52.030;4.690;2023-04-03T20:09:46;3.67;;;1.10;;
22359;SDS011;11347;52.030;4.690;2023-04-03T20:12:11;2.90;;;0.90;;
22359;SDS011;11347;52.030;4.690;2023-04-03T20:14:38;4.43;;;1.33;;
22359;SDS011;11347;52.030;4.690;2023-04-03T20:17:04;4.40;;;1.00;;
22359;SDS011;11347;52.030;4.690;2023-04-03T20:19:30;3.60;;;1.10;;
22359;SDS011;11347;52.030;4.690;2023-04-03T20:21:58;2.37;;;0.90;;
22359;SDS011;11347;52.030;4.690;2023-04-03T20:24:24;5.40;;;1.00;;
22359;SDS011;11347;52.030;4.690;2023-04-03T20:26:52;2.60;;;0.90;;
22359;SDS011;11347;52.030;4.690;2023-04-03T20:29:17;2.07;;;0.87;;
22359;SDS011;11347;52.030;4.690;2023-04-03T20:31:43;2.87;;;1.00;;
22359;SDS011;11347;52.030;4.690;2023-04-03T20:34:09;1.97;;;0.70;;
22359;SDS011;11347;52.030;4.690;2023-04-03T20:36:34;3.60;;;1.00;;
22359;SDS011;11347;52.030;4.690;2023-04-03T20:39:01;4.07;;;1.00;;
22359;SDS011;11347;52.030;4.690;2023-04-03T20:41:27;3.03;;;1.00;;
22359;SDS011;11347;52.030;4.690;2023-04-03T20:43:53;3.70;;;1.13;;
22359;SDS011;11347;52.030;4.690;2023-04-03T20:46:18;6.47;;;1.37;;
22359;SDS011;11347;52.030;4.690;2023-04-03T20:48:45;5.70;;;1.50;;
22359;SDS011;11347;52.030;4.690;2023-04-03T20:51:18;5.50;;;1.00;;
22359;SDS011;11347;52.030;4.690;2023-04-03T20:53:45;4.43;;;1.30;;
22359;SDS011;11347;52.030;4.690;2023-04-03T20:56:11;4.67;;;1.17;;
22359;SDS011;11347;52.030;4.690;2023-04-03T20:58:38;3.83;;;1.20;;
22359;SDS011;11347;52.030;4.690;2023-04-03T21:01:23;4.17;;;1.30;;
22359;SDS011;11347;52.030;4.690;2023-04-03T21:03:49;4.23;;;1.07;;
22359;SDS011;11347;52.030;4.690;2023-04-03T21:21:25;2.73;;;1.23;;
22359;SDS011;11347;52.030;4.690;2023-04-03T21:23:51;2.23;;;0.90;;
22359;SDS011;11347;52.030;4.690;2023-04-03T21:26:18;5.17;;;1.50;;
22359;SDS011;11347;52.030;4.690;2023-04-03T21:28:51;2.87;;;0.80;;
22359;SDS011;11347;52.030;4.690;2023-04-03T21:31:17;6.60;;;1.20;;
22359;SDS011;11347;52.030;4.690;2023-04-03T21:33:43;1.83;;;0.93;;
22359;SDS011;11347;52.030;4.690;2023-04-03T21:36:09;4.40;;;1.20;;
22359;SDS011;11347;52.030;4.690;2023-04-03T21:38:35;5.07;;;1.40;;
22359;SDS011;11347;52.030;4.690;2023-04-03T21:41:01;3.73;;;1.20;;
22359;SDS011;11347;52.030;4.690;2023-04-03T21:43:26;5.10;;;1.43;;
22359;SDS011;11347;52.030;4.690;2023-04-03T21:45:53;4.53;;;1.20;;
22359;SDS011;11347;52.030;4.690;2023-04-03T21:48:20;6.73;;;1.30;;
22359;SDS011;11347;52.030;4.690;2023-04-03T21:50:46;5.37;;;1.17;;
22359;SDS011;11347;52.030;4.690;2023-04-03T21:53:17;3.80;;;1.10;;
22359;SDS011;11347;52.030;4.690;2023-04-03T21:55:53;4.90;;;1.20;;
22359;SDS011;11347;52.030;4.690;2023-04-03T21:58:19;3.87;;;1.30;;
22359;SDS011;11347;52.030;4.690;2023-04-03T22:00:45;4.97;;;1.10;;
22359;SDS011;11347;52.030;4.690;2023-04-03T22:03:10;3.47;;;1.30;;
22359;SDS011;11347;52.030;4.690;2023-04-03T22:05:37;4.50;;;1.47;;
22359;SDS011;11347;52.030;4.690;2023-04-03T22:08:03;5.30;;;1.40;;
22359;SDS011;11347;52.030;4.690;2023-04-03T22:10:28;3.90;;;1.30;;
22359;SDS011;11347;52.030;4.690;2023-04-03T22:12:54;4.10;;;1.40;;
22359;SDS011;11347;52.030;4.690;2023-04-03T22:15:20;4.63;;;1.40;;
22359;SDS011;11347;52.030;4.690;2023-04-03T22:17:46;7.47;;;2.13;;
22359;SDS011;11347;52.030;4.690;2023-04-03T22:20:12;2.77;;;1.30;;
22359;SDS011;11347;52.030;4.690;2023-04-03T22:22:37;7.13;;;1.50;;
22359;SDS011;11347;52.030;4.690;2023-04-03T22:25:03;5.20;;;1.80;;
22359;SDS011;11347;52.030;4.690;2023-04-03T22:27:30;3.27;;;1.37;;
22359;SDS011;11347;52.030;4.690;2023-04-03T22:29:56;5.67;;;1.40;;
22359;SDS011;11347;52.030;4.690;2023-04-03T22:32:21;6.03;;;1.60;;
22359;SDS011;11347;52.030;4.690;2023-04-03T22:34:47;6.80;;;1.50;;
22359;SDS011;11347;52.030;4.690;2023-04-03T22:37:12;5.57;;;1.57;;
22359;SDS011;11347;52.030;4.690;2023-04-03T22:39:38;4.77;;;1.70;;
22359;SDS011;11347;52.030;4.690;2023-04-03T22:42:03;5.97;;;1.63;;
22359;SDS011;11347;52.030;4.690;2023-04-03T22:44:31;2.83;;;1.47;;
22359;SDS011;11347;52.030;4.690;2023-04-03T22:46:56;3.47;;;1.43;;
22359;SDS011;11347;52.030;4.690;2023-04-03T22:49:22;5.17;;;1.60;;
22359;SDS011;11347;52.030;4.690;2023-04-03T22:51:48;4.63;;;1.73;;
22359;SDS011;11347;52.030;4.690;2023-04-03T22:54:13;5.23;;;1.73;;
22359;SDS011;11347;52.030;4.690;2023-04-03T22:56:39;7.30;;;1.60;;
22359;SDS011;11347;52.030;4.690;2023-04-03T22:59:05;5.30;;;1.30;;
22359;SDS011;11347;52.030;4.690;2023-04-03T23:01:31;4.17;;;1.60;;
